Terminal Aerodrome Forecast
Issued by NWS

Home | Current Version | Previous Version | Graphics & Text | Print | Product List | Glossary On
Versions: 1 2 3 4 5 6 7 8 9 10 11 12
000
FTUS43 KBIS 231120
TAFJMS
TAF
KJMS 231120Z 2312/2412 17006KT P6SM SCT080
     FM240600 09008KT P6SM VCSH SCT025 OVC035
     FM240900 10010KT P6SM -RA OVC035=

USA.gov is the U.S. government's official web portal to all federal, state and local government web resources and services.